Time;durP1;ratioP1;P1;durP2;ratioP2;P2;SDS_P1;SDS_P2;PMS_P1;PMS_P2;Temp;Humidity;BMP_temperature;BMP_pressure;BME280_temperature;BME280_humidity;BME280_pressure;Samples;Min_cycle;Max_cycle;Signal;HPM_P1;HPM_P2
2023/05/17 00:01:55;;;;;;;2.55;1.33;;;9.00;99.90;;;;;;6142808;23;20248;-72
2023/05/17 00:04:22;;;;;;;2.58;1.60;;;9.00;99.90;;;;;;6123322;23;20213;-71
2023/05/17 00:06:49;;;;;;;1.77;1.40;;;8.90;99.90;;;;;;6134054;23;20193;-71
2023/05/17 00:09:16;;;;;;;2.17;1.30;;;8.90;99.90;;;;;;6135168;23;20232;-72
2023/05/17 00:11:44;;;;;;;3.75;1.58;;;8.90;99.90;;;;;;6143982;23;20202;-72
2023/05/17 00:14:11;;;;;;;2.65;1.60;;;8.90;99.90;;;;;;6127818;23;20699;-71
2023/05/17 00:16:38;;;;;;;3.30;1.92;;;8.90;99.90;;;;;;6148434;23;20318;-71
2023/05/17 00:19:05;;;;;;;4.18;1.70;;;8.80;99.90;;;;;;6148007;23;20197;-71
2023/05/17 00:21:32;;;;;;;3.28;1.73;;;8.80;99.90;;;;;;6146093;23;20251;-71
2023/05/17 00:24:00;;;;;;;2.67;1.52;;;8.80;99.90;;;;;;6133377;23;20242;-71
2023/05/17 00:26:26;;;;;;;6.85;2.15;;;8.80;99.90;;;;;;6141014;23;20637;-71
2023/05/17 00:28:55;;;;;;;2.55;1.50;;;8.70;99.90;;;;;;6145675;23;20234;-71
2023/05/17 00:31:22;;;;;;;2.10;1.50;;;8.70;99.90;;;;;;6144287;23;20644;-71
2023/05/17 00:33:49;;;;;;;2.35;1.75;;;8.70;99.90;;;;;;6140308;23;20209;-71
2023/05/17 00:36:16;;;;;;;2.40;1.50;;;8.70;99.90;;;;;;6146348;23;20194;-71
2023/05/17 00:38:43;;;;;;;3.28;1.55;;;8.60;99.90;;;;;;6146973;23;20340;-71
2023/05/17 00:41:11;;;;;;;3.35;1.70;;;8.60;99.90;;;;;;6149110;23;20262;-72
2023/05/17 00:43:38;;;;;;;2.78;1.50;;;8.60;99.90;;;;;;6135209;23;20729;-71
2023/05/17 00:46:07;;;;;;;1.92;1.48;;;8.60;99.90;;;;;;6144487;23;20195;-71
2023/05/17 00:48:34;;;;;;;2.50;1.52;;;8.60;99.90;;;;;;6142427;23;20268;-71
2023/05/17 00:51:01;;;;;;;4.10;1.70;;;8.60;99.90;;;;;;6135815;23;20187;-72
2023/05/17 00:53:29;;;;;;;2.92;1.63;;;8.60;99.90;;;;;;6135420;23;20536;-71
2023/05/17 00:55:56;;;;;;;2.50;1.40;;;8.60;99.90;;;;;;6131525;23;20574;-71
2023/05/17 00:58:24;;;;;;;4.60;1.70;;;8.60;99.90;;;;;;6138228;23;20197;-71
2023/05/17 01:00:51;;;;;;;2.70;1.35;;;8.60;99.90;;;;;;6133073;23;20282;-71
2023/05/17 01:03:21;;;;;;;4.13;1.60;;;8.60;99.90;;;;;;6144590;23;20192;-71
2023/05/17 01:05:48;;;;;;;3.10;1.63;;;8.50;99.90;;;;;;6146267;23;20189;-71
2023/05/17 01:08:16;;;;;;;3.35;1.85;;;8.50;99.90;;;;;;6133545;23;20192;-71
2023/05/17 01:10:52;;;;;;;2.30;1.35;;;8.50;99.90;;;;;;6134161;23;20211;-71
2023/05/17 01:13:27;;;;;;;2.05;1.40;;;8.50;99.90;;;;;;6130056;23;20611;-71
2023/05/17 01:16:05;;;;;;;5.28;2.03;;;8.50;99.90;;;;;;6132726;23;20634;-72
2023/05/17 01:18:39;;;;;;;2.90;1.70;;;8.50;99.90;;;;;;6136040;23;20188;-71
2023/05/17 01:21:19;;;;;;;2.72;1.20;;;8.50;99.90;;;;;;6144826;23;20208;-71
2023/05/17 01:23:55;;;;;;;2.75;1.30;;;8.50;99.90;;;;;;6146678;23;20210;-71
2023/05/17 01:26:36;;;;;;;3.33;1.92;;;8.50;99.90;;;;;;6149196;23;20181;-71
2023/05/17 01:29:07;;;;;;;2.97;1.45;;;8.50;99.90;;;;;;6142852;23;20200;-71
2023/05/17 01:31:35;;;;;;;2.17;1.40;;;8.40;99.90;;;;;;6143871;23;20212;-71
2023/05/17 01:34:07;;;;;;;2.92;1.58;;;8.40;99.90;;;;;;6137967;23;20247;-71
2023/05/17 01:36:34;;;;;;;3.90;2.28;;;8.40;99.90;;;;;;6146233;23;20197;-71
2023/05/17 01:39:02;;;;;;;3.20;1.65;;;8.40;99.90;;;;;;6144472;23;20200;-72
2023/05/17 01:41:35;;;;;;;1.73;1.40;;;8.40;99.90;;;;;;6148816;23;20286;-71
2023/05/17 01:44:12;;;;;;;3.13;1.60;;;8.40;99.90;;;;;;6138074;23;20209;-71
2023/05/17 01:46:41;;;;;;;5.05;2.05;;;8.40;99.90;;;;;;6135813;23;20206;-71
2023/05/17 01:49:15;;;;;;;1.65;1.55;;;8.40;99.90;;;;;;6143907;23;20722;-71
2023/05/17 01:51:48;;;;;;;5.15;2.20;;;8.40;99.90;;;;;;6145527;23;20208;-72
2023/05/17 01:54:17;;;;;;;3.67;1.30;;;8.40;99.90;;;;;;6137581;23;20208;-71
2023/05/17 01:56:51;;;;;;;3.08;1.30;;;8.40;99.90;;;;;;6145389;23;20703;-71
2023/05/17 01:59:24;;;;;;;2.50;1.52;;;8.30;99.90;;;;;;6142382;23;20197;-72
2023/05/17 02:01:53;;;;;;;4.78;1.60;;;8.30;99.90;;;;;;6135481;23;20207;-71
2023/05/17 02:04:21;;;;;;;2.30;1.48;;;8.30;99.90;;;;;;6145719;23;20204;-71
2023/05/17 02:06:48;;;;;;;3.40;1.60;;;8.30;99.90;;;;;;6140832;23;21252;-72
2023/05/17 02:09:15;;;;;;;2.45;1.67;;;8.30;99.90;;;;;;6145228;23;20731;-71
2023/05/17 02:11:42;;;;;;;4.35;1.80;;;8.50;99.90;;;;;;6146324;23;20680;-71
2023/05/17 02:14:10;;;;;;;3.55;1.73;;;8.30;99.90;;;;;;6131744;23;20220;-71
2023/05/17 02:16:37;;;;;;;1.90;1.50;;;8.30;99.90;;;;;;6131404;23;20664;-71
2023/05/17 02:19:06;;;;;;;3.78;1.73;;;8.30;99.90;;;;;;6149529;23;20684;-71
2023/05/17 02:21:33;;;;;;;5.60;1.98;;;8.30;99.90;;;;;;6142477;23;20254;-71
2023/05/17 02:24:00;;;;;;;2.45;1.45;;;8.30;99.90;;;;;;6146561;23;20235;-71
2023/05/17 02:26:27;;;;;;;3.80;1.90;;;8.30;99.90;;;;;;6142271;23;20273;-71
2023/05/17 02:28:54;;;;;;;4.50;1.95;;;8.30;99.90;;;;;;6148579;23;20211;-72
2023/05/17 02:31:23;;;;;;;3.50;1.90;;;8.20;99.90;;;;;;6148672;23;20188;-72
2023/05/17 02:33:50;;;;;;;2.90;1.70;;;8.20;99.90;;;;;;6126530;23;20635;-71
2023/05/17 02:36:17;;;;;;;2.15;1.90;;;8.20;99.90;;;;;;6149305;23;20270;-71
2023/05/17 02:38:44;;;;;;;2.63;1.70;;;8.20;99.90;;;;;;6137970;23;20194;-71
2023/05/17 02:41:12;;;;;;;4.75;1.40;;;8.40;99.90;;;;;;6146454;23;20228;-71
2023/05/17 02:43:38;;;;;;;4.43;1.70;;;8.10;99.90;;;;;;6119737;23;20293;-71
2023/05/17 02:46:05;;;;;;;3.33;1.58;;;8.10;99.90;;;;;;6130062;23;20302;-71
2023/05/17 02:48:34;;;;;;;1.95;1.35;;;8.10;99.90;;;;;;6136335;23;20197;-71
2023/05/17 02:51:01;;;;;;;1.70;1.35;;;8.10;99.90;;;;;;6149325;23;20188;-71
2023/05/17 02:53:28;;;;;;;3.20;1.48;;;8.10;99.90;;;;;;6139389;23;20209;-71
2023/05/17 02:55:56;;;;;;;1.70;1.60;;;8.00;99.90;;;;;;6118483;23;20725;-72
2023/05/17 02:58:23;;;;;;;2.17;1.60;;;8.00;99.90;;;;;;6142221;23;20260;-71
2023/05/17 03:00:51;;;;;;;2.10;1.60;;;8.00;99.90;;;;;;6147981;23;20270;-71
2023/05/17 03:03:18;;;;;;;1.95;1.75;;;7.90;99.90;;;;;;6142746;23;20219;-71
2023/05/17 03:05:46;;;;;;;8.35;2.17;;;7.90;99.90;;;;;;6139661;23;20188;-71
2023/05/17 03:08:13;;;;;;;3.88;1.60;;;7.80;99.90;;;;;;6141162;23;20196;-71
2023/05/17 03:10:40;;;;;;;2.00;1.42;;;7.80;99.90;;;;;;6148155;23;20191;-71
2023/05/17 03:13:07;;;;;;;2.67;2.08;;;7.80;99.90;;;;;;6127409;23;20185;-71
2023/05/17 03:15:34;;;;;;;4.38;1.95;;;7.70;99.90;;;;;;6120641;23;20185;-71
2023/05/17 03:18:01;;;;;;;1.75;1.50;;;7.70;99.90;;;;;;6138009;23;20208;-71
2023/05/17 03:20:28;;;;;;;4.00;1.67;;;7.70;99.90;;;;;;6149593;23;20246;-71
2023/05/17 03:22:57;;;;;;;2.97;1.88;;;7.60;99.90;;;;;;6138447;23;20223;-71
2023/05/17 03:25:24;;;;;;;5.05;2.00;;;7.60;99.90;;;;;;6133581;23;20508;-71
2023/05/17 03:27:51;;;;;;;3.97;1.60;;;7.60;99.90;;;;;;6145207;23;20215;-71
2023/05/17 03:30:18;;;;;;;3.33;1.70;;;7.60;99.90;;;;;;6148895;23;20290;-71
2023/05/17 03:32:45;;;;;;;3.38;2.13;;;7.50;99.90;;;;;;6128340;23;20191;-71
2023/05/17 03:35:12;;;;;;;2.13;1.77;;;7.50;99.90;;;;;;6125282;23;20630;-71
2023/05/17 03:37:39;;;;;;;1.55;1.45;;;7.50;99.90;;;;;;6148370;23;20244;-71
2023/05/17 03:40:08;;;;;;;2.80;1.70;;;7.50;99.90;;;;;;6146454;23;20646;-71
2023/05/17 03:42:35;;;;;;;4.70;1.50;;;7.40;99.90;;;;;;6148069;23;20574;-72
2023/05/17 03:45:02;;;;;;;2.10;1.70;;;7.40;99.90;;;;;;6128788;23;20242;-72
2023/05/17 03:47:30;;;;;;;2.15;1.42;;;7.40;99.90;;;;;;6142316;23;20191;-72
2023/05/17 03:49:56;;;;;;;2.63;1.77;;;7.40;99.90;;;;;;6141421;23;20265;-72
2023/05/17 03:52:23;;;;;;;2.90;1.70;;;7.40;99.90;;;;;;6148595;23;20821;-72
2023/05/17 03:54:51;;;;;;;3.90;1.77;;;7.40;99.90;;;;;;6142082;23;20854;-72
2023/05/17 03:57:19;;;;;;;1.70;1.45;;;7.30;99.90;;;;;;6143089;23;20642;-72
2023/05/17 03:59:46;;;;;;;2.33;1.83;;;7.30;99.90;;;;;;6148416;23;20187;-72
2023/05/17 04:02:15;;;;;;;2.60;1.85;;;7.30;99.90;;;;;;6149395;23;20303;-72
2023/05/17 04:04:48;;;;;;;4.03;1.70;;;7.30;99.90;;;;;;6145636;23;20211;-72
2023/05/17 04:07:15;;;;;;;4.93;1.70;;;7.40;99.90;;;;;;6147054;23;20257;-71
2023/05/17 04:09:42;;;;;;;2.58;1.90;;;7.40;99.90;;;;;;6149840;23;20674;-72
2023/05/17 04:12:10;;;;;;;3.83;2.50;;;7.40;99.90;;;;;;6141259;23;20253;-74
2023/05/17 04:14:38;;;;;;;3.13;1.92;;;7.40;99.90;;;;;;6140083;23;20220;-73
2023/05/17 04:17:05;;;;;;;3.85;2.20;;;7.40;99.90;;;;;;6141539;23;20186;-73
2023/05/17 04:19:33;;;;;;;5.07;2.10;;;7.40;99.90;;;;;;6147181;23;20266;-73
2023/05/17 04:22:00;;;;;;;3.55;2.20;;;7.40;99.90;;;;;;6142434;23;20231;-72
2023/05/17 04:24:27;;;;;;;3.72;2.63;;;7.40;99.90;;;;;;6144714;23;20679;-71
2023/05/17 04:26:54;;;;;;;2.70;2.00;;;7.50;99.90;;;;;;6148949;23;20216;-72
2023/05/17 04:29:21;;;;;;;3.97;2.33;;;7.50;99.90;;;;;;6147067;23;20200;-72
2023/05/17 04:31:50;;;;;;;2.38;2.10;;;7.50;99.90;;;;;;6146088;23;20220;-74
2023/05/17 04:34:17;;;;;;;4.97;2.00;;;7.50;99.90;;;;;;6114850;23;20212;-80
2023/05/17 04:36:44;;;;;;;3.13;2.17;;;7.60;99.90;;;;;;6124750;23;20233;-80
2023/05/17 04:39:11;;;;;;;3.88;2.22;;;7.60;99.90;;;;;;6126066;23;20648;-81
2023/05/17 04:41:38;;;;;;;2.95;2.03;;;7.70;99.90;;;;;;6124571;23;20220;-81
2023/05/17 04:44:07;;;;;;;4.95;2.35;;;7.70;99.90;;;;;;6120352;23;20218;-81
2023/05/17 04:46:34;;;;;;;5.05;2.55;;;7.80;99.90;;;;;;6126215;23;20202;-73
2023/05/17 04:49:03;;;;;;;3.10;1.80;;;7.90;99.90;;;;;;6134526;23;20244;-75
2023/05/17 04:51:30;;;;;;;5.03;2.00;;;7.90;99.90;;;;;;6120498;23;20203;-75
2023/05/17 04:53:59;;;;;;;4.60;2.17;;;7.90;99.90;;;;;;6116768;23;21513;-75
2023/05/17 04:56:26;;;;;;;3.33;1.90;;;8.00;99.90;;;;;;6125657;23;20188;-75
2023/05/17 04:58:53;;;;;;;5.75;3.03;;;8.10;99.90;;;;;;6140357;23;20278;-75
2023/05/17 05:01:21;;;;;;;3.45;1.85;;;8.10;99.90;;;;;;6131406;23;20242;-74
2023/05/17 05:03:47;;;;;;;4.00;2.15;;;8.20;99.90;;;;;;6117758;23;20614;-75
2023/05/17 05:06:16;;;;;;;2.78;1.98;;;8.20;99.90;;;;;;6127330;23;20291;-75
2023/05/17 05:08:43;;;;;;;3.72;2.42;;;8.30;99.90;;;;;;6121283;23;20305;-75
2023/05/17 05:11:10;;;;;;;3.25;1.70;;;8.40;99.90;;;;;;6121691;23;20187;-75
2023/05/17 05:13:38;;;;;;;2.00;1.80;;;8.40;99.90;;;;;;6137687;23;20199;-75
2023/05/17 05:16:06;;;;;;;4.03;1.85;;;8.50;99.90;;;;;;6131856;23;20189;-75
2023/05/17 05:18:33;;;;;;;4.57;2.25;;;8.50;99.90;;;;;;6141585;23;20227;-75
2023/05/17 05:21:00;;;;;;;3.03;1.92;;;8.60;99.90;;;;;;6139937;23;20185;-75
2023/05/17 05:23:28;;;;;;;4.20;2.35;;;8.60;99.90;;;;;;6137277;23;20226;-75
2023/05/17 05:25:55;;;;;;;2.53;2.28;;;8.70;99.90;;;;;;6143768;23;20189;-75
2023/05/17 05:28:22;;;;;;;3.83;2.03;;;8.70;99.90;;;;;;6144892;23;20572;-75
2023/05/17 05:30:49;;;;;;;4.18;1.77;;;8.70;99.90;;;;;;6145446;23;20259;-75
2023/05/17 05:33:16;;;;;;;4.15;1.92;;;8.80;99.90;;;;;;6135770;23;20213;-75
2023/05/17 05:35:44;;;;;;;3.72;2.40;;;8.80;99.90;;;;;;6136580;23;20270;-75
2023/05/17 05:38:11;;;;;;;4.53;2.50;;;8.90;99.90;;;;;;6138524;23;20186;-75
2023/05/17 05:40:40;;;;;;;4.47;2.28;;;8.90;99.90;;;;;;6144426;23;20304;-75
2023/05/17 05:43:07;;;;;;;5.65;2.83;;;8.90;99.90;;;;;;6136142;23;20239;-75
2023/05/17 05:45:34;;;;;;;4.95;2.60;;;9.00;99.90;;;;;;6140938;23;20261;-75
2023/05/17 05:48:02;;;;;;;4.70;2.13;;;9.00;99.90;;;;;;6141984;23;20252;-75
2023/05/17 05:50:30;;;;;;;4.13;2.08;;;9.10;99.90;;;;;;6143501;23;20217;-75
2023/05/17 05:53:00;;;;;;;2.95;2.20;;;9.20;99.90;;;;;;6139965;23;20186;-75
2023/05/17 05:55:27;;;;;;;2.58;2.35;;;9.20;99.90;;;;;;6144048;23;20232;-74
2023/05/17 05:57:55;;;;;;;4.60;2.35;;;9.30;99.90;;;;;;6122314;23;20583;-75
2023/05/17 06:00:22;;;;;;;7.55;2.78;;;9.40;99.90;;;;;;6124910;23;20510;-75
2023/05/17 06:02:50;;;;;;;3.30;1.90;;;9.40;99.90;;;;;;6132110;23;20231;-74
2023/05/17 06:05:17;;;;;;;3.90;2.22;;;9.50;99.90;;;;;;6138103;23;20504;-74
2023/05/17 06:07:44;;;;;;;6.13;2.60;;;9.60;99.90;;;;;;6144669;23;20592;-75
2023/05/17 06:10:11;;;;;;;4.28;2.35;;;9.60;99.90;;;;;;6139657;23;20194;-75
2023/05/17 06:12:38;;;;;;;5.95;2.20;;;9.60;99.90;;;;;;6139590;23;20243;-75
2023/05/17 06:15:08;;;;;;;4.05;2.33;;;9.60;99.90;;;;;;6125287;23;20214;-75
2023/05/17 06:17:35;;;;;;;5.85;2.60;;;9.60;99.90;;;;;;6128714;23;20503;-75
2023/05/17 06:20:02;;;;;;;5.50;2.53;;;9.70;99.90;;;;;;6130031;23;20270;-75
2023/05/17 06:22:29;;;;;;;4.38;2.80;;;9.80;99.90;;;;;;6140479;23;20260;-75
2023/05/17 06:24:56;;;;;;;3.47;2.25;;;9.90;99.90;;;;;;6129615;23;20206;-75
2023/05/17 06:27:23;;;;;;;3.92;2.30;;;10.00;99.90;;;;;;6147280;23;20269;-75
2023/05/17 06:29:50;;;;;;;3.55;2.20;;;10.20;99.90;;;;;;6122463;23;20559;-75
2023/05/17 06:32:19;;;;;;;4.97;2.42;;;10.30;99.90;;;;;;6142538;23;20194;-75
2023/05/17 06:34:46;;;;;;;4.57;2.83;;;10.50;99.90;;;;;;6155227;23;20283;-75
2023/05/17 06:37:16;;;;;;;3.90;2.40;;;10.70;99.90;;;;;;6147303;23;20193;-75
2023/05/17 06:39:43;;;;;;;4.78;2.88;;;10.80;99.90;;;;;;6142961;23;20191;-75
2023/05/17 06:42:10;;;;;;;6.47;2.70;;;10.90;99.90;;;;;;6146674;23;20197;-75
2023/05/17 06:44:37;;;;;;;5.32;2.50;;;11.00;99.90;;;;;;6146452;23;20678;-75
2023/05/17 06:47:04;;;;;;;3.45;2.40;;;11.20;99.90;;;;;;6137917;23;20210;-75
2023/05/17 06:49:33;;;;;;;4.47;2.80;;;11.30;99.90;;;;;;6127478;23;20260;-75
2023/05/17 06:52:02;;;;;;;4.78;2.65;;;11.30;99.90;;;;;;6122262;23;20187;-75
2023/05/17 06:54:29;;;;;;;3.60;2.38;;;11.40;99.90;;;;;;6142369;23;20608;-75
2023/05/17 06:56:59;;;;;;;3.72;2.38;;;11.50;99.90;;;;;;6136679;23;20210;-75
2023/05/17 06:59:26;;;;;;;6.00;2.75;;;11.60;99.90;;;;;;6134878;23;20197;-75
2023/05/17 07:01:53;;;;;;;3.33;2.50;;;11.70;99.90;;;;;;6132844;23;20650;-75
2023/05/17 07:04:21;;;;;;;3.63;2.90;;;11.70;99.90;;;;;;6136475;23;20585;-75
2023/05/17 07:06:49;;;;;;;5.90;2.95;;;11.70;99.90;;;;;;6147766;23;20193;-75
2023/05/17 07:09:17;;;;;;;5.05;2.75;;;11.80;99.90;;;;;;6150656;23;20193;-75
2023/05/17 07:11:44;;;;;;;5.55;2.88;;;11.80;99.90;;;;;;6143247;23;20237;-75
2023/05/17 07:14:11;;;;;;;4.28;2.72;;;11.90;99.90;;;;;;6148194;23;20557;-75
2023/05/17 07:16:39;;;;;;;4.78;2.88;;;12.00;99.90;;;;;;6148251;23;20198;-75
2023/05/17 07:19:06;;;;;;;6.13;3.40;;;12.10;99.90;;;;;;6145134;23;20179;-75
2023/05/17 07:21:33;;;;;;;6.13;3.35;;;12.30;99.90;;;;;;6137261;23;20179;-75
2023/05/17 07:24:01;;;;;;;3.60;2.60;;;12.50;99.90;;;;;;6140230;23;20257;-75
2023/05/17 07:26:28;;;;;;;4.30;2.72;;;12.70;99.90;;;;;;6146858;23;20214;-75
2023/05/17 07:28:55;;;;;;;3.70;3.20;;;12.90;99.90;;;;;;6142849;23;20226;-75
2023/05/17 07:31:22;;;;;;;6.30;2.90;;;13.10;99.90;;;;;;6131282;23;20438;-75
2023/05/17 07:33:50;;;;;;;4.97;3.30;;;13.50;99.90;;;;;;6133681;23;20459;-75
2023/05/17 07:36:17;;;;;;;4.97;3.37;;;13.90;99.90;;;;;;6133687;23;20427;-75
2023/05/17 07:38:44;;;;;;;5.77;3.30;;;14.30;99.90;;;;;;6140457;23;20437;-75
2023/05/17 07:41:15;;;;;;;4.50;2.80;;;14.70;99.90;;;;;;6146557;23;20493;-76
2023/05/17 07:43:42;;;;;;;3.50;2.70;;;15.20;99.90;;;;;;6148383;23;20471;-76
2023/05/17 07:46:09;;;;;;;4.93;2.90;;;15.70;99.90;;;;;;6146545;23;20425;-75
2023/05/17 07:48:37;;;;;;;3.80;2.70;;;16.20;99.90;;;;;;6140044;23;20429;-75
2023/05/17 07:51:04;;;;;;;5.87;2.90;;;16.60;99.90;;;;;;6146351;23;20441;-76
2023/05/17 07:53:31;;;;;;;4.07;2.70;;;16.80;99.90;;;;;;6130618;23;20828;-75
2023/05/17 07:55:58;;;;;;;3.87;2.80;;;17.20;99.90;;;;;;6140972;23;20459;-76
2023/05/17 07:58:26;;;;;;;4.57;2.90;;;17.30;99.90;;;;;;6138861;23;20468;-76
2023/05/17 08:00:53;;;;;;;4.50;2.90;;;17.40;99.90;;;;;;6154672;23;20854;-76
2023/05/17 08:03:21;;;;;;;5.07;3.07;;;17.40;99.90;;;;;;6138118;23;20468;-76
2023/05/17 08:05:48;;;;;;;4.17;2.83;;;17.30;99.90;;;;;;6147322;23;20977;-76
2023/05/17 08:08:15;;;;;;;5.60;3.10;;;17.10;99.90;;;;;;6146104;23;20986;-76
2023/05/17 08:10:42;;;;;;;4.03;2.80;;;16.90;99.90;;;;;;6137777;23;20993;-76
2023/05/17 08:13:09;;;;;;;3.10;2.80;;;16.80;99.90;;;;;;6148646;23;20463;-75
2023/05/17 08:15:37;;;;;;;4.87;3.57;;;16.60;99.90;;;;;;6139119;23;20534;-76
2023/05/17 08:18:04;;;;;;;4.33;3.37;;;16.50;99.90;;;;;;6128774;23;20451;-75
2023/05/17 08:20:31;;;;;;;6.80;3.13;;;16.40;99.90;;;;;;6132248;23;20456;-75
2023/05/17 08:22:58;;;;;;;4.17;3.00;;;16.20;99.90;;;;;;6146024;23;20560;-76
2023/05/17 08:25:25;;;;;;;5.93;3.00;;;16.10;99.90;;;;;;6145706;23;20495;-75
2023/05/17 08:27:52;;;;;;;4.80;2.77;;;16.10;99.90;;;;;;6140965;23;20438;-75
2023/05/17 08:30:19;;;;;;;3.43;3.10;;;16.10;99.90;;;;;;6140528;23;20515;-76
2023/05/17 08:32:48;;;;;;;5.47;3.60;;;16.10;99.90;;;;;;6143426;23;20501;-75
2023/05/17 08:35:14;;;;;;;4.20;2.87;;;16.00;99.90;;;;;;6146859;23;20414;-75
2023/05/17 08:37:41;;;;;;;4.00;2.93;;;16.10;99.90;;;;;;6143002;23;20463;-75
2023/05/17 08:40:09;;;;;;;4.67;2.87;;;16.20;99.90;;;;;;6140053;23;21074;-76
2023/05/17 08:42:37;;;;;;;3.80;2.73;;;16.20;99.90;;;;;;6144939;23;20459;-75
2023/05/17 08:45:07;;;;;;;3.60;3.00;;;16.30;99.90;;;;;;6133878;23;20487;-74
2023/05/17 08:47:36;;;;;;;5.77;2.80;;;16.40;99.90;;;;;;6135778;23;20445;-75
2023/05/17 08:50:06;;;;;;;5.77;3.20;;;16.50;99.90;;;;;;6139538;23;20520;-75
2023/05/17 08:52:35;;;;;;;4.20;2.90;;;16.70;99.90;;;;;;6139939;23;20507;-74
2023/05/17 08:55:04;;;;;;;4.23;3.03;;;16.80;99.90;;;;;;6127796;23;20456;-75
2023/05/17 08:57:35;;;;;;;3.13;2.80;;;16.80;99.90;;;;;;6127334;23;20464;-75
2023/05/17 09:00:04;;;;;;;4.03;2.90;;;17.00;99.90;;;;;;6141962;23;20432;-75
2023/05/17 09:02:32;;;;;;;5.30;3.47;;;17.10;99.90;;;;;;6142825;23;20441;-75
2023/05/17 09:05:00;;;;;;;3.40;2.80;;;17.30;99.90;;;;;;6147290;23;20480;-74
2023/05/17 09:07:28;;;;;;;4.70;3.10;;;17.50;99.90;;;;;;6143992;23;20433;-83
2023/05/17 09:09:55;;;;;;;4.27;2.90;;;17.70;99.90;;;;;;6137860;23;20449;-74
2023/05/17 09:12:22;;;;;;;4.30;3.00;;;17.80;99.90;;;;;;6137723;23;20433;-74
2023/05/17 09:14:49;;;;;;;3.70;3.27;;;18.10;99.90;;;;;;6133549;23;20471;-74
2023/05/17 09:17:19;;;;;;;5.40;3.40;;;18.00;99.90;;;;;;6138595;23;21046;-74
2023/05/17 09:19:47;;;;;;;5.77;3.90;;;18.00;99.90;;;;;;6133959;23;20445;-73
2023/05/17 09:22:14;;;;;;;4.20;3.30;;;17.90;99.90;;;;;;6144355;23;20433;-74
2023/05/17 09:24:43;;;;;;;4.37;3.30;;;17.90;99.70;;;;;;6144033;23;20508;-74
2023/05/17 09:27:15;;;;;;;3.73;3.27;;;18.00;99.70;;;;;;6136995;23;20439;-74
2023/05/17 09:29:44;;;;;;;5.97;3.03;;;18.20;99.80;;;;;;6142817;23;20441;-74
2023/05/17 09:32:13;;;;;;;4.90;3.30;;;18.30;99.30;;;;;;6149523;23;20420;-73
2023/05/17 09:34:41;;;;;;;3.27;2.97;;;18.40;98.70;;;;;;6146744;23;20483;-74
2023/05/17 09:37:14;;;;;;;3.03;2.60;;;18.50;98.30;;;;;;6144763;23;20440;-74
2023/05/17 09:39:41;;;;;;;3.80;3.30;;;18.70;98.50;;;;;;6145298;23;20436;-74
2023/05/17 09:42:09;;;;;;;4.20;3.30;;;18.90;97.60;;;;;;6142024;23;20833;-74
2023/05/17 09:44:51;;;;;;;3.30;2.63;;;18.80;97.20;;;;;;6141091;23;20480;-74
2023/05/17 09:47:23;;;;;;;3.60;3.10;;;18.90;97.10;;;;;;6133021;23;20569;-74
2023/05/17 09:49:50;;;;;;;3.87;2.97;;;19.10;97.50;;;;;;6147592;23;20943;-75
2023/05/17 09:52:19;;;;;;;3.93;3.10;;;19.00;97.10;;;;;;6145625;23;20437;-75
2023/05/17 09:54:53;;;;;;;4.90;3.50;;;19.10;97.00;;;;;;6139457;23;20457;-75
2023/05/17 09:57:22;;;;;;;4.53;3.20;;;19.30;96.40;;;;;;6138986;23;20442;-75
2023/05/17 09:59:50;;;;;;;4.77;3.60;;;19.50;96.40;;;;;;6117822;23;20447;-76
2023/05/17 10:02:22;;;;;;;4.53;3.10;;;19.70;94.70;;;;;;6120225;23;20954;-75
2023/05/17 10:04:51;;;;;;;3.87;2.90;;;19.80;94.40;;;;;;6128356;23;20476;-74
2023/05/17 10:07:20;;;;;;;3.50;3.00;;;19.60;93.80;;;;;;6116493;23;20524;-72
2023/05/17 10:09:48;;;;;;;5.10;3.40;;;19.40;94.10;;;;;;6118972;23;20458;-73
2023/05/17 10:12:18;;;;;;;4.57;3.57;;;19.20;94.50;;;;;;6125732;23;20437;-74
2023/05/17 10:14:47;;;;;;;3.80;3.23;;;18.80;94.50;;;;;;6117409;23;21031;-73
2023/05/17 10:17:16;;;;;;;4.13;3.20;;;18.50;95.40;;;;;;6131332;23;21473;-75
2023/05/17 10:19:43;;;;;;;3.50;3.20;;;18.30;95.40;;;;;;6131944;23;21206;-73
2023/05/17 10:22:11;;;;;;;3.93;2.80;;;18.10;95.50;;;;;;6126594;23;20435;-73
2023/05/17 10:24:40;;;;;;;4.73;3.60;;;18.00;95.40;;;;;;6138153;23;20460;-76
2023/05/17 10:27:07;;;;;;;3.37;2.97;;;17.90;95.30;;;;;;6140836;23;20433;-72
2023/05/17 10:29:34;;;;;;;4.47;3.00;;;18.10;95.60;;;;;;6137472;23;20774;-72
2023/05/17 10:32:06;;;;;;;3.10;2.80;;;18.30;95.10;;;;;;6142770;23;20440;-77
2023/05/17 10:34:35;;;;;;;5.87;3.20;;;18.40;94.70;;;;;;6147431;23;20460;-77
2023/05/17 10:37:04;;;;;;;3.50;3.20;;;18.40;95.00;;;;;;6147726;23;20506;-79
2023/05/17 10:39:33;;;;;;;3.77;3.40;;;18.70;95.00;;;;;;6144962;23;20413;-74
2023/05/17 10:42:03;;;;;;;3.50;2.83;;;18.90;94.20;;;;;;6109359;23;20438;-82
2023/05/17 10:44:32;;;;;;;5.10;3.57;;;18.80;94.10;;;;;;6129762;23;20452;-74
2023/05/17 10:47:00;;;;;;;3.50;3.20;;;18.80;94.00;;;;;;6127174;23;20440;-74
2023/05/17 10:49:31;;;;;;;3.33;2.90;;;18.80;93.90;;;;;;6136150;23;20489;-74
2023/05/17 10:51:59;;;;;;;5.20;3.23;;;18.70;94.00;;;;;;6120887;23;20516;-74
2023/05/17 10:54:35;;;;;;;4.60;3.03;;;18.70;94.00;;;;;;6134767;23;20535;-76
2023/05/17 10:57:04;;;;;;;3.90;3.27;;;18.70;94.50;;;;;;6142561;23;20454;-76
2023/05/17 10:59:34;;;;;;;5.63;3.50;;;18.60;94.30;;;;;;6131149;23;20440;-77
2023/05/17 11:02:03;;;;;;;5.90;3.17;;;18.70;94.50;;;;;;6137797;23;20468;-77
2023/05/17 11:04:36;;;;;;;4.83;3.50;;;18.70;94.50;;;;;;6141799;23;20564;-75
2023/05/17 11:07:25;;;;;;;3.47;3.00;;;18.80;94.20;;;;;;6145280;23;20433;-75
2023/05/17 11:09:54;;;;;;;4.20;3.27;;;18.70;94.30;;;;;;6143137;23;20501;-75
2023/05/17 11:12:33;;;;;;;3.97;3.30;;;18.60;94.50;;;;;;6141876;23;20436;-75
2023/05/17 11:15:01;;;;;;;3.20;2.90;;;18.40;94.40;;;;;;6132524;23;20523;-75
2023/05/17 11:17:35;;;;;;;4.67;2.97;;;18.40;94.70;;;;;;6147862;23;21105;-75
2023/05/17 11:20:08;;;;;;;4.73;3.10;;;18.40;94.70;;;;;;6142637;23;20434;-74
2023/05/17 11:22:37;;;;;;;3.60;3.30;;;18.40;94.80;;;;;;6132899;23;20527;-76
2023/05/17 11:25:09;;;;;;;4.00;3.17;;;18.50;94.50;;;;;;6126181;23;20466;-76
2023/05/17 11:27:38;;;;;;;5.90;3.17;;;18.50;94.40;;;;;;6147944;23;20492;-77
2023/05/17 11:30:18;;;;;;;3.33;3.03;;;18.50;94.10;;;;;;6124267;23;20433;-76
2023/05/17 11:32:50;;;;;;;3.47;2.97;;;18.30;94.10;;;;;;6144093;23;20461;-76
2023/05/17 11:35:23;;;;;;;3.30;2.60;;;18.20;94.30;;;;;;6158857;23;20431;-76
2023/05/17 11:37:52;;;;;;;3.13;2.80;;;18.10;93.90;;;;;;6152933;23;20540;-76
2023/05/17 11:40:27;;;;;;;3.30;3.00;;;17.90;94.10;;;;;;6129380;23;20445;-78
2023/05/17 11:43:14;;;;;;;3.30;2.87;;;17.90;94.30;;;;;;6129363;23;20911;-75
2023/05/17 11:45:49;;;;;;;3.30;2.77;;;17.90;94.50;;;;;;6129545;23;20471;-74
2023/05/17 11:48:17;;;;;;;5.87;3.27;;;18.00;94.30;;;;;;6134684;23;20443;-78
2023/05/17 11:50:48;;;;;;;3.97;2.97;;;18.00;94.40;;;;;;6139566;23;21007;-77
2023/05/17 11:53:15;;;;;;;3.30;3.00;;;18.10;94.00;;;;;;6142496;23;21005;-76
2023/05/17 11:55:44;;;;;;;3.33;2.80;;;18.10;94.00;;;;;;6142448;23;20429;-70
2023/05/17 11:58:15;;;;;;;6.00;3.00;;;18.10;94.10;;;;;;6146207;23;20838;-74
2023/05/17 12:00:43;;;;;;;2.90;2.60;;;18.00;94.00;;;;;;6142277;23;20445;-74
2023/05/17 12:03:20;;;;;;;3.20;2.90;;;18.00;94.10;;;;;;6138894;23;20461;-72
2023/05/17 12:05:50;;;;;;;2.97;2.70;;;17.90;94.10;;;;;;6147449;23;20466;-72
2023/05/17 12:08:18;;;;;;;2.97;2.53;;;17.80;94.30;;;;;;6145457;23;20432;-73
2023/05/17 12:10:48;;;;;;;3.57;2.73;;;17.70;94.30;;;;;;6144425;23;20436;-76
2023/05/17 12:13:15;;;;;;;3.80;2.40;;;17.70;94.50;;;;;;6129261;23;20452;-78
2023/05/17 12:15:45;;;;;;;3.93;3.03;;;17.80;94.60;;;;;;6124073;23;20472;-78
2023/05/17 12:18:13;;;;;;;3.53;2.93;;;17.90;94.60;;;;;;6133605;23;20437;-74
2023/05/17 12:20:55;;;;;;;4.63;3.30;;;18.00;94.20;;;;;;6145424;23;20424;-74
2023/05/17 12:23:32;;;;;;;3.63;3.10;;;18.20;94.50;;;;;;6133005;23;20509;-73
2023/05/17 12:26:06;;;;;;;5.77;3.13;;;18.40;94.70;;;;;;6137380;23;20507;-76
2023/05/17 12:28:34;;;;;;;5.80;3.07;;;18.70;94.30;;;;;;6147962;23;20447;-75
2023/05/17 12:31:02;;;;;;;3.80;2.87;;;18.80;94.00;;;;;;6144106;23;20517;-75
2023/05/17 12:33:31;;;;;;;3.73;3.10;;;19.00;93.90;;;;;;6128203;23;20448;-75
2023/05/17 12:36:01;;;;;;;3.73;2.80;;;19.10;94.00;;;;;;6143063;23;20432;-75
2023/05/17 12:38:32;;;;;;;3.23;2.80;;;19.20;93.80;;;;;;6136901;23;20440;-75
2023/05/17 12:41:01;;;;;;;4.13;3.20;;;19.20;93.60;;;;;;6130934;23;20432;-75
2023/05/17 12:43:28;;;;;;;3.50;2.90;;;19.20;93.30;;;;;;6113494;23;20457;-75
2023/05/17 12:46:02;;;;;;;3.53;3.00;;;19.20;93.30;;;;;;6123753;23;20497;-75
2023/05/17 12:48:29;;;;;;;5.93;3.00;;;19.10;92.90;;;;;;6125154;23;20435;-82
2023/05/17 12:50:56;;;;;;;4.03;2.70;;;19.00;93.40;;;;;;6125391;23;20433;-75
2023/05/17 12:53:34;;;;;;;4.30;3.30;;;18.90;93.40;;;;;;6117215;23;20528;-75
2023/05/17 12:56:01;;;;;;;3.70;2.87;;;18.90;93.60;;;;;;6129191;23;20863;-75
2023/05/17 12:58:28;;;;;;;4.23;3.00;;;18.90;94.00;;;;;;6145613;23;20512;-75
2023/05/17 13:01:00;;;;;;;3.43;2.80;;;19.00;93.80;;;;;;6138333;23;20514;-75